Time;durP1;ratioP1;P1;durP2;ratioP2;P2;SDS_P1;SDS_P2;PMS_P1;PMS_P2;Temp;Humidity;BMP_temperature;BMP_pressure;BME280_temperature;BME280_humidity;BME280_pressure;Samples;Min_cycle;Max_cycle;Signal;HPM_P1;HPM_P2
2022/04/12 00:01:13;;;;;;;149.50;97.20;;;;;;;1.99;90.19;99296.86;105346;1268;62179;-70
2022/04/12 00:03:39;;;;;;;146.30;93.70;;;;;;;1.94;90.49;99295.94;105346;1268;62097;-71
2022/04/12 00:06:06;;;;;;;145.90;92.10;;;;;;;1.89;90.65;99289.59;105349;1268;76617;-70
2022/04/12 00:09:03;;;;;;;143.50;96.00;;;;;;;1.81;90.67;99288.95;105336;1268;69673;-71
2022/04/12 00:11:30;;;;;;;145.20;92.10;;;;;;;1.68;90.69;99290.67;105353;1267;74238;-70
2022/04/12 00:13:56;;;;;;;143.30;93.30;;;;;;;1.60;91.12;99290.02;105290;1268;62121;-71
2022/04/12 00:16:23;;;;;;;150.70;97.00;;;;;;;1.51;91.37;99291.63;105339;1268;62079;-70
2022/04/12 00:19:05;;;;;;;156.50;99.20;;;;;;;1.43;91.82;99289.75;105361;1267;62106;-71
2022/04/12 00:21:34;;;;;;;149.20;96.30;;;;;;;1.37;92.22;99285.53;105358;1268;69424;-70
2022/04/12 00:24:03;;;;;;;157.00;95.90;;;;;;;1.32;92.27;99278.64;105189;1268;72762;-70
2022/04/12 00:26:30;;;;;;;153.20;93.30;;;;;;;1.28;92.76;99276.81;105381;1268;62450;-70
2022/04/12 00:28:56;;;;;;;141.90;91.20;;;;;;;1.24;92.87;99276.75;105326;1267;61981;-70
2022/04/12 00:31:23;;;;;;;142.30;90.20;;;;;;;1.18;93.05;99276.70;105356;1268;77449;-69
2022/04/12 00:33:49;;;;;;;142.10;90.10;;;;;;;1.13;93.11;99277.20;105333;1268;62066;-70
2022/04/12 00:36:16;;;;;;;146.80;94.30;;;;;;;1.06;93.41;99279.63;103534;1268;1005608;-71
2022/04/12 00:38:42;;;;;;;151.30;95.20;;;;;;;1.01;93.60;99280.81;105327;1268;62201;-69
2022/04/12 00:41:11;;;;;;;150.30;96.80;;;;;;;0.95;94.20;99280.77;105409;1268;62177;-69
2022/04/12 00:43:38;;;;;;;146.50;95.40;;;;;;;0.91;94.67;99280.67;105376;1268;76111;-71
2022/04/12 00:46:05;;;;;;;148.30;94.80;;;;;;;0.89;94.91;99277.41;105387;1268;70410;-71
2022/04/12 00:48:33;;;;;;;142.40;92.60;;;;;;;0.86;94.98;99277.65;105358;1268;73288;-71
2022/04/12 00:51:00;;;;;;;147.60;96.00;;;;;;;0.81;95.09;99277.40;105372;1268;62393;-70
2022/04/12 00:54:23;;;;;;;153.50;97.90;;;;;;;0.75;95.30;99275.98;105348;1268;61228;-70
2022/04/12 00:56:51;;;;;;;150.20;97.00;;;;;;;0.67;96.08;99278.98;105231;1267;214821;-70
2022/04/12 00:59:19;;;;;;;152.50;99.60;;;;;;;0.63;96.61;99282.54;105356;1267;70419;-71
2022/04/12 01:01:46;;;;;;;151.90;101.90;;;;;;;0.62;96.80;99281.16;105368;1268;73463;-69
2022/04/12 01:04:12;;;;;;;148.60;97.60;;;;;;;0.62;97.22;99281.16;105366;1268;62106;-70
2022/04/12 01:06:39;;;;;;;150.60;97.70;;;;;;;0.58;97.29;99284.75;105335;1268;62389;-71
2022/04/12 01:09:06;;;;;;;142.90;95.20;;;;;;;0.52;97.33;99284.88;105015;1271;76224;-70
2022/04/12 01:11:33;;;;;;;140.20;95.40;;;;;;;0.44;97.20;99283.83;105338;1268;62369;-70
2022/04/12 01:14:00;;;;;;;152.10;98.50;;;;;;;0.34;97.38;99287.71;105345;1268;75033;-71
2022/04/12 01:16:27;;;;;;;158.20;97.50;;;;;;;0.27;97.60;99288.02;105343;1268;62062;-70
2022/04/12 01:18:54;;;;;;;142.30;95.60;;;;;;;0.24;98.00;99290.34;105349;1268;61966;-70
2022/04/12 01:21:21;;;;;;;152.40;99.30;;;;;;;0.22;98.07;99294.23;105369;1268;76116;-70
2022/04/12 01:23:57;;;;;;;152.40;97.60;;;;;;;0.18;98.36;99295.02;105310;1268;70201;-70
2022/04/12 01:26:23;;;;;;;144.80;97.40;;;;;;;0.14;98.68;99293.71;105317;1267;73739;-70
2022/04/12 01:28:50;;;;;;;149.70;97.80;;;;;;;0.10;98.56;99296.23;105351;1268;62101;-70
2022/04/12 01:31:16;;;;;;;148.30;97.90;;;;;;;0.08;98.77;99297.50;105329;1268;62081;-70
2022/04/12 01:33:43;;;;;;;138.60;92.20;;;;;;;0.05;98.86;99297.20;105244;1268;75249;-70
2022/04/12 01:36:09;;;;;;;137.10;89.70;;;;;;;0.01;99.01;99299.36;105023;1268;62128;-70
2022/04/12 01:38:36;;;;;;;133.00;91.50;;;;;;;-0.02;99.25;99303.27;105339;1267;62179;-70
2022/04/12 01:41:02;;;;;;;136.50;93.80;;;;;;;-0.05;99.32;99302.45;105245;1268;62100;-70
2022/04/12 01:43:29;;;;;;;139.40;91.30;;;;;;;-0.09;99.52;99304.62;105042;1268;62337;-71
2022/04/12 01:45:56;;;;;;;142.20;94.50;;;;;;;-0.12;99.61;99313.23;105319;1268;62171;-70
2022/04/12 01:48:25;;;;;;;147.80;93.30;;;;;;;-0.15;99.95;99310.16;105334;1268;62161;-70
2022/04/12 01:50:51;;;;;;;144.70;97.30;;;;;;;-0.18;100.00;99311.26;104986;1268;73437;-69
2022/04/12 01:53:18;;;;;;;145.50;100.30;;;;;;;-0.21;100.00;99311.48;105347;1268;62158;-70
2022/04/12 01:55:44;;;;;;;141.10;97.90;;;;;;;-0.23;100.00;99313.44;105308;1268;62066;-70
2022/04/12 01:58:11;;;;;;;147.30;97.60;;;;;;;-0.25;100.00;99317.84;105320;1268;62050;-70
2022/04/12 02:00:38;;;;;;;143.40;95.60;;;;;;;-0.28;100.00;99318.42;105031;1268;70394;-70
2022/04/12 02:03:06;;;;;;;150.80;100.30;;;;;;;-0.32;100.00;99316.56;105445;1268;73441;-71
2022/04/12 02:05:33;;;;;;;137.40;97.40;;;;;;;-0.34;100.00;99316.95;105288;1267;62076;-71
2022/04/12 02:07:59;;;;;;;145.40;96.70;;;;;;;-0.37;100.00;99316.66;105321;1268;62136;-71
2022/04/12 02:10:26;;;;;;;145.80;98.40;;;;;;;-0.39;100.00;99315.31;105319;1268;62031;-70
2022/04/12 02:12:52;;;;;;;149.60;102.30;;;;;;;-0.40;100.00;99317.07;105352;1268;68155;-68
2022/04/12 02:15:19;;;;;;;153.50;104.20;;;;;;;-0.42;100.00;99314.48;105334;1268;73189;-68
2022/04/12 02:17:46;;;;;;;176.20;117.70;;;;;;;-0.45;100.00;99313.65;105257;1271;62107;-70
2022/04/12 02:20:12;;;;;;;170.00;116.30;;;;;;;-0.45;100.00;99314.36;105334;1268;62128;-70
2022/04/12 02:22:39;;;;;;;160.50;108.10;;;;;;;-0.47;100.00;99318.05;105352;1268;62177;-71
2022/04/12 02:25:06;;;;;;;150.80;98.60;;;;;;;-0.51;100.00;99316.71;105366;1268;62078;-70
2022/04/12 02:27:32;;;;;;;151.70;98.90;;;;;;;-0.54;100.00;99321.13;105080;1268;72579;-69
2022/04/12 02:29:59;;;;;;;163.80;114.90;;;;;;;-0.58;100.00;99318.60;105357;1267;62181;-71
2022/04/12 02:32:26;;;;;;;156.50;111.50;;;;;;;-0.59;100.00;99321.05;105365;1268;62157;-71
2022/04/12 02:34:52;;;;;;;172.20;120.70;;;;;;;-0.61;100.00;99325.80;105455;1267;76200;-71
2022/04/12 02:37:19;;;;;;;158.00;109.90;;;;;;;-0.62;100.00;99331.94;105390;1268;62160;-71
2022/04/12 02:39:45;;;;;;;158.80;111.00;;;;;;;-0.63;100.00;99330.71;105046;1268;62108;-71
2022/04/12 02:42:12;;;;;;;174.80;118.60;;;;;;;-0.64;100.00;99330.20;105384;1268;62198;-70
2022/04/12 02:44:38;;;;;;;173.80;121.00;;;;;;;-0.65;100.00;99333.70;105375;1268;62189;-70
2022/04/12 02:47:06;;;;;;;180.70;128.50;;;;;;;-0.67;100.00;99331.98;105392;1268;62187;-70
2022/04/12 02:49:33;;;;;;;186.00;128.10;;;;;;;-0.69;100.00;99336.03;105387;1268;70100;-71
2022/04/12 02:51:59;;;;;;;164.30;114.30;;;;;;;-0.69;100.00;99340.39;105385;1268;62055;-70
2022/04/12 02:54:26;;;;;;;170.10;116.90;;;;;;;-0.70;100.00;99342.67;105347;1268;62076;-70
2022/04/12 02:56:53;;;;;;;180.20;125.80;;;;;;;-0.70;100.00;99342.17;105405;1268;62049;-71
2022/04/12 02:59:19;;;;;;;172.90;120.60;;;;;;;-0.72;100.00;99344.63;105357;1268;62087;-70
2022/04/12 03:01:46;;;;;;;179.30;126.90;;;;;;;-0.72;100.00;99344.45;105340;1268;62091;-71
2022/04/12 03:04:12;;;;;;;182.80;128.40;;;;;;;-0.73;100.00;99348.32;105312;1268;62091;-70
2022/04/12 03:06:39;;;;;;;184.50;131.10;;;;;;;-0.73;100.00;99349.02;105301;1268;62091;-70
2022/04/12 03:09:05;;;;;;;184.30;130.80;;;;;;;-0.70;100.00;99347.56;105310;1268;62177;-69
2022/04/12 03:11:31;;;;;;;187.40;131.40;;;;;;;-0.67;100.00;99349.44;105338;1267;62065;-70
2022/04/12 03:13:58;;;;;;;177.20;127.00;;;;;;;-0.64;100.00;99345.21;105341;1268;62049;-69
2022/04/12 03:16:25;;;;;;;169.00;115.80;;;;;;;-0.62;100.00;99346.75;105290;1268;62155;-70
2022/04/12 03:18:51;;;;;;;158.60;114.90;;;;;;;-0.57;100.00;99349.46;105297;1268;62062;-69
2022/04/12 03:21:18;;;;;;;167.40;120.80;;;;;;;-0.53;100.00;99347.48;105301;1268;62142;-69
2022/04/12 03:23:44;;;;;;;166.00;115.80;;;;;;;-0.53;100.00;99347.29;105363;1268;75572;-70
2022/04/12 03:26:11;;;;;;;171.00;117.50;;;;;;;-0.51;100.00;99341.15;105357;1268;62374;-70
2022/04/12 03:28:38;;;;;;;162.90;112.30;;;;;;;-0.50;100.00;99335.20;105082;1268;62149;-69
2022/04/12 03:31:04;;;;;;;169.50;115.70;;;;;;;-0.48;100.00;99338.14;105285;1268;62248;-71
2022/04/12 03:33:31;;;;;;;159.60;113.90;;;;;;;-0.47;100.00;99340.05;105338;1268;62113;-72
2022/04/12 03:35:57;;;;;;;153.00;112.40;;;;;;;-0.45;100.00;99338.95;105072;1268;62092;-71
2022/04/12 03:38:25;;;;;;;164.20;116.20;;;;;;;-0.42;100.00;99335.79;105321;1268;70188;-70
2022/04/12 03:40:52;;;;;;;159.10;115.00;;;;;;;-0.42;100.00;99339.09;105078;1268;74318;-72
2022/04/12 03:43:19;;;;;;;155.10;111.50;;;;;;;-0.42;100.00;99336.98;105072;1268;62198;-73
2022/04/12 03:45:45;;;;;;;151.40;108.60;;;;;;;-0.40;100.00;99342.20;105335;1268;62057;-70
2022/04/12 03:48:12;;;;;;;154.00;111.60;;;;;;;-0.36;100.00;99341.61;105299;1268;62052;-70
2022/04/12 03:50:39;;;;;;;145.40;110.40;;;;;;;-0.35;100.00;99343.32;105319;1268;62171;-70
2022/04/12 03:53:05;;;;;;;162.20;116.20;;;;;;;-0.31;100.00;99342.20;105295;1268;74585;-70
2022/04/12 03:55:34;;;;;;;148.20;113.30;;;;;;;-0.28;100.00;99343.40;105315;1268;62196;-70
2022/04/12 03:58:04;;;;;;;152.00;114.70;;;;;;;-0.28;100.00;99341.29;105141;1268;62218;-70
2022/04/12 04:00:30;;;;;;;150.20;109.10;;;;;;;-0.26;100.00;99345.45;105319;1268;76961;-70
2022/04/12 04:02:57;;;;;;;145.70;107.50;;;;;;;-0.26;100.00;99349.63;105342;1268;70264;-69
2022/04/12 04:05:25;;;;;;;155.30;110.20;;;;;;;-0.25;100.00;99349.44;105316;1268;73202;-70
2022/04/12 04:07:52;;;;;;;149.50;108.20;;;;;;;-0.21;100.00;99351.66;105027;1268;62451;-70
2022/04/12 04:10:20;;;;;;;145.10;107.20;;;;;;;-0.18;100.00;99350.72;105315;1267;61961;-69
2022/04/12 04:12:48;;;;;;;141.10;103.80;;;;;;;-0.14;100.00;99348.36;105482;1268;76274;-69
2022/04/12 04:15:14;;;;;;;128.60;99.10;;;;;;;-0.08;100.00;99348.45;105172;1268;68605;-70
2022/04/12 04:17:42;;;;;;;138.80;103.00;;;;;;;-0.01;100.00;99350.59;105281;1267;74687;-70
2022/04/12 04:20:14;;;;;;;130.60;102.10;;;;;;;0.26;100.00;99348.14;105387;1267;62139;-70
2022/04/12 04:22:41;;;;;;;134.20;100.30;;;;;;;0.60;100.00;99351.14;105318;1268;61959;-70
2022/04/12 04:25:09;;;;;;;135.50;102.30;;;;;;;0.76;100.00;99353.26;105346;1268;76171;-71
2022/04/12 04:27:36;;;;;;;134.10;100.20;;;;;;;0.76;100.00;99354.64;105349;1268;68209;-71
2022/04/12 04:30:04;;;;;;;129.50;98.10;;;;;;;0.78;100.00;99357.23;105321;1267;74493;-70
2022/04/12 04:32:31;;;;;;;130.70;96.80;;;;;;;0.79;100.00;99356.32;105326;1268;62174;-71
2022/04/12 04:34:58;;;;;;;134.80;101.20;;;;;;;0.83;100.00;99352.58;105296;1268;62185;-71
2022/04/12 04:37:25;;;;;;;133.90;103.20;;;;;;;0.85;100.00;99355.50;105394;1268;76115;-71
2022/04/12 04:39:53;;;;;;;134.20;102.70;;;;;;;0.91;100.00;99354.67;105094;1268;69432;-72
2022/04/12 04:42:27;;;;;;;137.30;105.70;;;;;;;1.21;100.00;99349.10;105282;1268;73437;-71
2022/04/12 04:44:53;;;;;;;139.40;105.70;;;;;;;1.29;100.00;99355.38;105240;1268;62202;-70
2022/04/12 04:47:20;;;;;;;127.10;100.70;;;;;;;1.29;100.00;99358.54;105308;1267;61988;-71
2022/04/12 04:49:46;;;;;;;126.40;100.10;;;;;;;1.35;100.00;99361.37;105331;1268;61970;-71
2022/04/12 04:52:13;;;;;;;129.50;101.70;;;;;;;1.47;100.00;99367.05;105242;1268;62045;-71
2022/04/12 04:54:39;;;;;;;121.90;98.30;;;;;;;1.65;100.00;99365.73;105347;1268;62924;-70
2022/04/12 04:57:06;;;;;;;124.50;97.70;;;;;;;1.74;100.00;99363.58;105300;1268;62052;-71
2022/04/12 04:59:32;;;;;;;114.40;89.30;;;;;;;1.94;100.00;99363.23;105096;1268;62197;-72
2022/04/12 05:01:59;;;;;;;117.30;99.30;;;;;;;2.16;100.00;99372.98;105359;1268;62134;-71
2022/04/12 05:04:25;;;;;;;112.00;98.10;;;;;;;2.28;100.00;99369.00;105324;1268;62623;-71
2022/04/12 05:06:52;;;;;;;108.20;92.50;;;;;;;2.91;100.00;99365.96;105328;1268;62120;-71
2022/04/12 05:09:18;;;;;;;106.00;85.80;;;;;;;3.05;100.00;99372.58;105046;1268;62180;-70
2022/04/12 05:11:45;;;;;;;102.30;87.50;;;;;;;3.12;100.00;99377.09;105321;1268;62066;-71
2022/04/12 05:14:11;;;;;;;94.20;81.00;;;;;;;3.56;99.99;99379.05;105310;1268;62164;-70
2022/04/12 05:16:38;;;;;;;93.20;77.70;;;;;;;3.52;100.00;99383.25;105339;1267;62092;-71
2022/04/12 05:19:04;;;;;;;93.80;75.50;;;;;;;3.60;99.93;99381.20;105293;1268;62154;-71
2022/04/12 05:21:31;;;;;;;85.40;73.60;;;;;;;3.93;99.31;99383.83;105246;1268;62181;-70
2022/04/12 05:23:57;;;;;;;85.80;70.80;;;;;;;4.65;96.79;99383.59;105347;1268;62068;-70
2022/04/12 05:26:24;;;;;;;80.70;66.50;;;;;;;5.18;95.35;99381.77;105317;1268;62173;-70
2022/04/12 05:28:50;;;;;;;79.50;69.70;;;;;;;5.23;93.31;99390.38;105307;1268;62183;-71
2022/04/12 05:31:17;;;;;;;86.80;70.20;;;;;;;4.82;93.51;99398.10;105273;1268;62164;-70
2022/04/12 05:33:43;;;;;;;79.80;68.00;;;;;;;5.10;92.90;99401.11;105279;1268;62171;-70
2022/04/12 05:36:10;;;;;;;75.70;64.40;;;;;;;5.26;92.00;99399.59;105315;1268;62171;-70
2022/04/12 05:38:49;;;;;;;74.50;60.00;;;;;;;5.26;91.64;99401.02;105278;1268;76229;-70
2022/04/12 05:41:16;;;;;;;65.20;55.40;;;;;;;5.39;90.62;99405.80;105352;1267;62097;-70
2022/04/12 05:43:43;;;;;;;64.30;54.80;;;;;;;5.58;89.51;99404.15;105347;1268;73158;-70
2022/04/12 05:46:10;;;;;;;59.60;51.00;;;;;;;5.86;88.85;99400.73;105090;1268;62213;-71
2022/04/12 05:48:37;;;;;;;65.30;50.00;;;;;;;6.25;88.46;99398.96;105354;1267;62062;-70
2022/04/12 05:51:03;;;;;;;61.00;50.10;;;;;;;6.82;88.21;99398.04;105294;1268;62107;-72
2022/04/12 05:53:30;;;;;;;63.70;51.00;;;;;;;7.17;85.55;99398.02;105303;1268;62069;-72
2022/04/12 05:55:57;;;;;;;64.00;47.30;;;;;;;7.29;84.26;99401.17;105309;1268;73197;-71
2022/04/12 05:58:24;;;;;;;63.20;45.60;;;;;;;7.35;82.97;99403.75;105278;1268;62109;-71
2022/04/12 06:00:51;;;;;;;56.70;44.10;;;;;;;7.46;82.38;99401.77;105326;1268;62069;-69
2022/04/12 06:03:18;;;;;;;57.20;43.00;;;;;;;7.60;81.04;99404.46;105253;1268;76096;-71
2022/04/12 06:05:44;;;;;;;57.00;42.00;;;;;;;7.67;80.45;99408.71;105266;1268;62050;-72
2022/04/12 06:08:11;;;;;;;50.60;39.50;;;;;;;7.87;80.82;99402.98;105074;1268;74554;-71
2022/04/12 06:10:37;;;;;;;46.20;35.00;;;;;;;8.07;79.21;99406.41;105296;1268;62225;-70
2022/04/12 06:13:04;;;;;;;43.70;34.00;;;;;;;8.17;78.52;99411.58;105299;1268;62096;-70
2022/04/12 06:15:31;;;;;;;43.60;32.50;;;;;;;8.41;78.26;99411.08;105363;1268;77352;-71
2022/04/12 06:17:57;;;;;;;36.30;27.00;;;;;;;8.64;75.75;99412.40;105070;1268;62155;-70
2022/04/12 06:20:24;;;;;;;37.90;28.50;;;;;;;8.57;74.79;99415.24;105316;1268;62286;-72
2022/04/12 06:22:50;;;;;;;33.30;26.60;;;;;;;8.62;74.23;99415.70;105306;1267;62074;-71
2022/04/12 06:25:19;;;;;;;27.50;22.90;;;;;;;8.60;72.96;99415.64;105339;1268;62264;-71
2022/04/12 06:27:51;;;;;;;30.00;22.40;;;;;;;8.49;73.58;99418.14;105400;1268;76280;-69
2022/04/12 06:30:21;;;;;;;30.70;23.10;;;;;;;8.79;73.84;99421.87;105323;1268;69359;-70
2022/04/12 06:32:48;;;;;;;33.50;22.90;;;;;;;9.07;72.73;99420.77;105531;1267;72297;-71
2022/04/12 06:35:15;;;;;;;31.90;23.30;;;;;;;9.14;71.40;99420.52;105267;1268;62352;-71
2022/04/12 06:37:43;;;;;;;29.80;22.20;;;;;;;9.06;70.02;99425.73;105346;1268;62489;-71
2022/04/12 06:40:13;;;;;;;28.00;21.30;;;;;;;8.93;70.41;99422.73;105377;1267;77211;-71
2022/04/12 06:42:40;;;;;;;27.20;20.80;;;;;;;8.85;69.74;99425.80;105332;1268;69001;-71
2022/04/12 06:45:08;;;;;;;28.90;22.90;;;;;;;8.64;70.62;99421.24;105266;1268;62147;-71
2022/04/12 06:47:35;;;;;;;33.50;21.50;;;;;;;8.41;69.48;99420.67;105269;1268;62157;-71
2022/04/12 06:50:03;;;;;;;32.80;23.40;;;;;;;8.13;69.03;99424.35;105277;1268;62180;-71
2022/04/12 06:52:29;;;;;;;27.20;20.90;;;;;;;7.92;69.64;99424.83;105232;1268;76656;-71
2022/04/12 06:54:56;;;;;;;30.10;21.30;;;;;;;7.86;69.85;99427.64;105043;1268;69289;-71
2022/04/12 06:57:22;;;;;;;29.20;21.40;;;;;;;7.83;69.85;99427.41;105329;1268;62114;-71
2022/04/12 06:59:50;;;;;;;31.50;22.50;;;;;;;7.84;69.82;99427.21;105337;1268;62217;-71
2022/04/12 07:02:17;;;;;;;28.90;21.90;;;;;;;7.84;69.78;99428.42;105310;1268;62074;-71
2022/04/12 07:04:43;;;;;;;31.50;21.10;;;;;;;7.84;69.31;99428.25;105282;1267;77742;-70
2022/04/12 07:07:10;;;;;;;27.90;20.50;;;;;;;7.86;69.37;99429.91;105329;1268;69302;-71
2022/04/12 07:09:37;;;;;;;27.40;20.40;;;;;;;7.89;69.05;99426.93;105320;1267;73223;-71
2022/04/12 07:12:04;;;;;;;28.20;21.90;;;;;;;7.93;68.97;99428.72;105034;1268;61963;-70
2022/04/12 07:14:31;;;;;;;30.90;21.30;;;;;;;7.98;68.94;99418.20;105306;1268;61962;-71
2022/04/12 07:16:57;;;;;;;30.30;21.00;;;;;;;8.02;68.14;99425.45;105037;1268;76406;-69
2022/04/12 07:19:24;;;;;;;29.60;22.30;;;;;;;8.06;68.54;99425.56;105323;1268;62187;-71
2022/04/12 07:21:51;;;;;;;28.60;20.50;;;;;;;8.15;68.23;99424.43;105378;1268;74395;-71
2022/04/12 07:24:18;;;;;;;26.30;19.90;;;;;;;8.19;67.50;99428.67;105404;1268;62175;-70
2022/04/12 07:26:45;;;;;;;29.70;22.00;;;;;;;8.18;66.79;99428.88;105338;1268;62113;-71
2022/04/12 07:29:11;;;;;;;31.20;24.30;;;;;;;8.24;67.42;99430.01;105380;1268;77108;-70
2022/04/12 07:31:38;;;;;;;32.90;23.40;;;;;;;8.32;67.11;99433.64;105284;1268;69257;-71
2022/04/12 07:34:05;;;;;;;31.50;22.70;;;;;;;8.39;67.03;99426.92;105315;1268;71569;-71
2022/04/12 07:36:31;;;;;;;32.40;21.90;;;;;;;8.47;66.83;99430.14;105302;1268;62103;-69
2022/04/12 07:38:58;;;;;;;27.50;19.60;;;;;;;8.58;66.75;99428.30;105334;1268;62167;-71
2022/04/12 07:41:25;;;;;;;22.20;17.80;;;;;;;8.64;66.09;99429.91;105323;1268;61972;-70
2022/04/12 07:43:52;;;;;;;30.20;20.40;;;;;;;8.75;65.90;99430.43;105294;1268;69344;-70
2022/04/12 07:46:19;;;;;;;27.80;19.20;;;;;;;8.80;65.43;99430.52;105391;1268;73277;-72
2022/04/12 07:48:45;;;;;;;26.20;18.80;;;;;;;8.84;64.18;99430.65;105080;1268;62206;-71
2022/04/12 07:51:12;;;;;;;23.60;18.90;;;;;;;8.85;64.57;99432.91;105356;1268;62547;-70
2022/04/12 07:53:38;;;;;;;28.30;19.10;;;;;;;8.95;64.83;99436.08;105428;1268;75499;-70
2022/04/12 07:56:06;;;;;;;23.80;17.20;;;;;;;9.07;64.54;99435.65;105458;1268;69440;-70
2022/04/12 07:58:32;;;;;;;21.80;17.20;;;;;;;9.19;63.95;99439.60;105491;1268;71812;-70
2022/04/12 08:00:59;;;;;;;23.50;17.40;;;;;;;9.28;63.67;99443.04;105414;1268;62173;-71
2022/04/12 08:03:26;;;;;;;20.20;15.70;;;;;;;9.39;63.60;99438.50;105511;1268;62171;-71
2022/04/12 08:05:52;;;;;;;20.40;16.70;;;;;;;9.52;63.37;99440.78;105175;1268;74979;-71
2022/04/12 08:08:19;;;;;;;21.50;16.20;;;;;;;9.65;63.88;99439.52;105427;1268;69420;-72
2022/04/12 08:10:46;;;;;;;23.30;16.50;;;;;;;9.80;63.77;99440.84;105481;1268;73368;-68
2022/04/12 08:13:12;;;;;;;18.40;15.20;;;;;;;9.92;63.41;99441.38;105383;1268;62076;-70
2022/04/12 08:15:39;;;;;;;18.70;12.50;;;;;;;10.02;62.83;99444.36;105394;1268;62071;-70
2022/04/12 08:18:06;;;;;;;9.80;8.30;;;;;;;10.12;62.25;99443.13;105390;1268;76942;-68
2022/04/12 08:20:32;;;;;;;15.60;11.00;;;;;;;10.16;61.05;99441.80;105409;1268;68958;-69
2022/04/12 08:23:00;;;;;;;14.90;11.80;;;;;;;10.16;60.07;99443.73;105426;1268;73200;-69
2022/04/12 08:25:26;;;;;;;15.40;11.50;;;;;;;10.13;59.81;99440.02;105285;1268;62046;-69
2022/04/12 08:27:53;;;;;;;15.00;11.70;;;;;;;10.21;60.03;99439.93;105353;1268;62229;-68
2022/04/12 08:30:19;;;;;;;14.30;11.00;;;;;;;10.28;59.99;99440.91;105455;1268;62091;-71
2022/04/12 08:32:46;;;;;;;20.70;13.20;;;;;;;10.39;59.63;99442.81;105379;1268;69084;-70
2022/04/12 08:35:13;;;;;;;9.80;7.50;;;;;;;10.46;58.74;99442.20;105164;1268;71876;-72
2022/04/12 08:37:40;;;;;;;12.30;8.10;;;;;;;10.46;55.38;99437.93;105376;1268;62077;-71
2022/04/12 08:40:07;;;;;;;14.50;9.20;;;;;;;10.38;55.05;99440.54;105362;1268;62088;-70
2022/04/12 08:42:34;;;;;;;12.90;9.00;;;;;;;10.44;56.80;99443.77;105356;1268;74944;-70
2022/04/12 08:45:06;;;;;;;10.60;8.40;;;;;;;10.62;57.06;99443.56;105412;1268;70563;-71
2022/04/12 08:47:36;;;;;;;10.80;8.10;;;;;;;10.82;57.29;99441.45;105494;1268;74557;-71
2022/04/12 08:50:05;;;;;;;12.20;8.40;;;;;;;11.01;57.05;99441.03;105425;1268;62200;-71
2022/04/12 08:52:32;;;;;;;11.80;9.60;;;;;;;11.15;56.72;99444.42;105348;1268;62094;-70
2022/04/12 08:55:01;;;;;;;14.80;11.60;;;;;;;11.22;56.49;99443.43;105421;1268;77312;-71
2022/04/12 08:57:28;;;;;;;14.20;10.10;;;;;;;11.30;56.43;99445.94;105335;1268;69136;-73
2022/04/12 08:59:55;;;;;;;15.20;10.20;;;;;;;11.37;55.91;99443.73;105336;1268;74385;-72
2022/04/12 09:02:22;;;;;;;15.80;11.60;;;;;;;11.40;55.31;99441.73;105134;1268;62165;-72
2022/04/12 09:04:49;;;;;;;15.20;11.40;;;;;;;11.52;56.20;99434.30;105368;1268;61986;-72
2022/04/12 09:07:17;;;;;;;14.30;11.60;;;;;;;11.61;54.44;99437.55;105419;1267;76975;-70
2022/04/12 09:09:44;;;;;;;10.70;8.80;;;;;;;11.61;54.66;99435.48;105405;1268;69175;-72
2022/04/12 09:12:13;;;;;;;9.40;4.60;;;;;;;11.65;51.73;99434.29;105386;1268;71562;-72
2022/04/12 09:14:46;;;;;;;9.30;6.60;;;;;;;11.72;50.71;99431.05;105374;1268;62153;-72
2022/04/12 09:17:18;;;;;;;4.60;2.80;;;;;;;11.82;51.11;99429.30;105384;1268;62071;-73
2022/04/12 09:19:51;;;;;;;5.00;2.70;;;;;;;11.81;47.01;99432.77;105561;1268;74385;-73
2022/04/12 09:22:28;;;;;;;6.00;2.80;;;;;;;11.75;47.81;99429.23;105498;1268;68412;-74
2022/04/12 09:24:59;;;;;;;8.60;7.40;;;;;;;11.66;48.31;99426.58;105467;1268;73771;-72
2022/04/12 09:27:28;;;;;;;3.90;2.30;;;;;;;11.61;47.58;99427.27;105159;1268;62085;-72
2022/04/12 09:30:01;;;;;;;5.30;3.00;;;;;;;11.59;46.36;99424.88;105565;1267;62049;-72
2022/04/12 09:32:34;;;;;;;4.00;2.80;;;;;;;11.77;46.80;99422.33;105606;1268;76194;-72
2022/04/12 09:35:01;;;;;;;5.50;2.30;;;;;;;11.94;45.89;99421.81;105439;1268;69104;-70
2022/04/12 09:37:30;;;;;;;2.50;2.00;;;;;;;12.08;47.00;99411.46;105442;1268;74101;-71
2022/04/12 09:40:13;;;;;;;4.60;3.60;;;;;;;12.29;47.01;99412.48;105439;1268;61944;-71
2022/04/12 09:42:50;;;;;;;7.00;6.20;;;;;;;12.53;46.93;99411.06;105455;1268;61984;-72
2022/04/12 09:45:17;;;;;;;6.60;5.20;;;;;;;12.69;46.17;99404.23;105394;1268;77465;-71
2022/04/12 09:47:47;;;;;;;8.30;6.10;;;;;;;12.83;46.57;99401.67;105421;1268;70359;-73
2022/04/12 09:50:14;;;;;;;8.40;6.10;;;;;;;13.05;46.67;99401.41;105438;1268;72603;-73
2022/04/12 09:52:55;;;;;;;8.90;6.90;;;;;;;13.19;45.81;99402.94;105384;1268;62081;-72
2022/04/12 09:55:43;;;;;;;9.30;5.70;;;;;;;13.26;45.91;99399.04;105413;1268;62121;-71
2022/04/12 09:58:22;;;;;;;9.10;6.50;;;;;;;13.30;44.87;99394.64;105361;1268;77137;-71
2022/04/12 10:00:49;;;;;;;10.00;7.60;;;;;;;13.39;46.00;99392.39;105105;1267;70366;-69
2022/04/12 10:03:20;;;;;;;9.30;7.40;;;;;;;13.58;45.48;99395.48;105382;1268;73364;-71
2022/04/12 10:05:47;;;;;;;9.30;6.30;;;;;;;13.69;45.45;99395.24;105321;1268;62039;-71
2022/04/12 10:08:17;;;;;;;5.70;5.00;;;;;;;13.78;43.95;99390.61;105081;1268;62145;-71
2022/04/12 10:10:44;;;;;;;6.40;4.90;;;;;;;13.90;44.86;99384.58;105051;1268;76061;-71
2022/04/12 10:13:13;;;;;;;9.30;8.10;;;;;;;14.14;44.71;99380.09;105300;1268;69394;-70
2022/04/12 10:15:40;;;;;;;8.80;6.90;;;;;;;14.28;44.33;99377.39;105367;1266;72873;-72
2022/04/12 10:18:07;;;;;;;9.40;7.40;;;;;;;14.38;44.07;99381.81;105324;1268;62119;-71
2022/04/12 10:20:33;;;;;;;8.40;6.80;;;;;;;14.45;44.23;99383.98;105328;1268;62076;-72
2022/04/12 10:23:01;;;;;;;11.50;6.30;;;;;;;14.59;43.98;99379.40;105308;1268;62068;-72
2022/04/12 10:25:29;;;;;;;8.90;6.10;;;;;;;14.76;44.19;99378.76;105307;1268;69328;-71
2022/04/12 10:27:58;;;;;;;7.10;5.70;;;;;;;14.88;43.51;99372.42;105321;1268;73603;-71
2022/04/12 10:30:27;;;;;;;7.10;5.00;;;;;;;14.88;43.34;99374.62;105263;1268;62183;-72
2022/04/12 10:33:07;;;;;;;7.60;5.70;;;;;;;14.85;42.76;99377.00;105305;1268;61928;-70
2022/04/12 10:35:45;;;;;;;9.30;6.70;;;;;;;14.76;42.60;99378.92;105312;1268;75905;-72
2022/04/12 10:38:14;;;;;;;8.00;6.70;;;;;;;14.56;42.30;99381.73;105310;1268;70502;-71
2022/04/12 10:40:47;;;;;;;10.60;6.60;;;;;;;14.30;42.05;99381.52;105342;1268;74386;-70
2022/04/12 10:43:20;;;;;;;7.70;6.90;;;;;;;14.14;41.26;99379.41;105500;1268;62065;-71
2022/04/12 10:45:49;;;;;;;8.90;6.60;;;;;;;14.07;41.35;99375.08;105090;1272;61944;-71
2022/04/12 10:48:23;;;;;;;6.70;5.90;;;;;;;14.17;41.83;99366.98;105497;1268;76216;-71
2022/04/12 10:50:52;;;;;;;8.20;6.20;;;;;;;14.30;40.96;99370.64;105309;1268;68776;-71
2022/04/12 10:53:37;;;;;;;8.00;6.20;;;;;;;14.34;41.33;99364.45;105542;1268;72602;-72
2022/04/12 10:56:07;;;;;;;6.90;6.10;;;;;;;14.49;41.82;99362.59;105332;1268;62187;-71
2022/04/12 10:58:34;;;;;;;11.60;8.20;;;;;;;14.59;41.64;99358.64;105397;1268;62040;-72
2022/04/12 11:01:02;;;;;;;8.60;6.30;;;;;;;14.67;41.64;99358.73;105294;1268;76095;-72
2022/04/12 11:03:41;;;;;;;9.50;6.60;;;;;;;14.69;41.39;99356.04;105211;1268;68794;-71
2022/04/12 11:06:21;;;;;;;9.30;6.30;;;;;;;14.73;40.86;99357.87;105272;1268;74434;-70
2022/04/12 11:08:53;;;;;;;8.30;7.00;;;;;;;14.55;39.43;99348.36;105337;1268;62103;-71
2022/04/12 11:11:26;;;;;;;7.50;6.30;;;;;;;14.41;40.88;99351.34;105341;1268;61948;-69
2022/04/12 11:13:54;;;;;;;7.50;5.00;;;;;;;14.30;39.59;99348.88;105326;1268;77152;-71